Time;durP1;ratioP1;P1;durP2;ratioP2;P2;SDS_P1;SDS_P2;PMS_P1;PMS_P2;Temp;Humidity;BMP_temperature;BMP_pressure;BME280_temperature;BME280_humidity;BME280_pressure;Samples;Min_cycle;Max_cycle;Signal;HPM_P1;HPM_P2
2022/02/27 00:34:30;;;;;;;32.03;12.30;;;-0.30;96.30;;;;;;5277839;23;20557;-78
2022/02/27 00:36:55;;;;;;;19.50;8.30;;;-0.30;96.30;;;;;;4954712;29;20411;-78
2022/02/27 00:39:21;;;;;;;54.83;16.77;;;-0.40;96.30;;;;;;4954670;29;20418;-78
2022/02/27 00:41:46;;;;;;;74.43;22.80;;;-0.30;96.30;;;;;;4937500;29;20211;-78
2022/02/27 00:44:12;;;;;;;32.60;11.37;;;-0.20;96.30;;;;;;4937411;29;20183;-78
2022/02/27 00:46:37;;;;;;;45.00;12.80;;;-0.20;96.30;;;;;;4938077;29;20183;-78
2022/02/27 00:49:03;;;;;;;28.10;11.40;;;-0.10;96.30;;;;;;4946403;29;20175;-78
2022/02/27 05:00:56;;;;;;;14.83;7.00;;;-3.20;96.30;;;;;;5700763;23;20897;-76
2022/02/27 05:03:22;;;;;;;8.63;5.30;;;-3.30;96.30;;;;;;4936957;29;20427;-76
2022/02/27 05:05:47;;;;;;;15.23;6.00;;;-3.40;96.30;;;;;;4954495;29;20171;-77
2022/02/27 05:08:13;;;;;;;9.47;5.17;;;-3.40;96.30;;;;;;4953935;29;20182;-77
2022/02/27 05:10:39;;;;;;;13.20;5.30;;;-3.40;96.30;;;;;;4937226;29;20194;-77
2022/02/27 05:13:04;;;;;;;15.50;5.13;;;-3.20;96.30;;;;;;4937853;29;20202;-76
2022/02/27 05:15:30;;;;;;;13.27;6.70;;;-3.20;96.30;;;;;;4957215;29;20183;-76
2022/02/27 05:17:56;;;;;;;15.00;7.03;;;-3.20;96.30;;;;;;4960908;29;20182;-76
2022/02/27 08:09:53;;;;;;;10.63;5.63;;;0.70;96.30;;;;;;5608317;23;20612;-78
2022/02/27 08:12:19;;;;;;;10.27;5.17;;;0.90;96.30;;;;;;4954209;29;20514;-78
2022/02/27 08:14:46;;;;;;;10.90;6.17;;;1.00;96.30;;;;;;4955128;28;20187;-79
2022/02/27 08:17:13;;;;;;;12.90;5.77;;;1.10;96.30;;;;;;4956084;29;20728;-79
2022/02/27 08:19:38;;;;;;;6.83;5.23;;;1.30;96.30;;;;;;4954831;29;20454;-79
2022/02/27 08:22:04;;;;;;;12.73;5.33;;;1.60;96.30;;;;;;4955855;29;20549;-79
2022/02/27 08:24:30;;;;;;;11.60;5.40;;;1.90;96.30;;;;;;4956404;29;20418;-77
2022/02/27 08:26:56;;;;;;;9.67;5.47;;;1.90;96.30;;;;;;4955244;29;20179;-77
2022/02/27 08:29:22;;;;;;;10.83;5.13;;;1.90;96.30;;;;;;4953202;29;20190;-77
2022/02/27 08:31:47;;;;;;;12.73;5.40;;;1.80;96.30;;;;;;4953515;29;20434;-77
2022/02/27 08:34:13;;;;;;;12.60;6.17;;;1.60;96.30;;;;;;4953515;29;20559;-77
2022/02/27 08:36:40;;;;;;;9.30;5.97;;;1.60;96.30;;;;;;4948612;29;20184;-76
2022/02/27 08:39:06;;;;;;;15.03;4.37;;;1.60;96.30;;;;;;4916017;29;20193;-77
2022/02/27 08:41:32;;;;;;;14.03;5.97;;;1.50;96.30;;;;;;4916144;29;20463;-77
2022/02/27 08:43:57;;;;;;;8.70;5.53;;;1.60;96.30;;;;;;4916676;29;20412;-77
2022/02/27 08:46:23;;;;;;;10.27;5.03;;;1.50;96.30;;;;;;4916663;29;20176;-77
2022/02/27 08:48:48;;;;;;;16.10;5.67;;;1.60;96.30;;;;;;4914809;29;20227;-78
2022/02/27 08:51:14;;;;;;;7.70;4.33;;;1.70;96.30;;;;;;4915260;29;20196;-78
2022/02/27 08:53:40;;;;;;;13.90;6.20;;;1.70;96.30;;;;;;4916464;29;20180;-78
2022/02/27 08:56:05;;;;;;;13.80;5.90;;;1.80;96.30;;;;;;4916504;29;20169;-78
2022/02/27 08:58:31;;;;;;;9.90;5.70;;;1.90;96.30;;;;;;4915843;29;20172;-77
2022/02/27 09:00:56;;;;;;;14.07;6.70;;;2.00;96.30;;;;;;4926681;29;20600;-77
2022/02/27 09:03:24;;;;;;;16.73;8.93;;;1.80;96.30;;;;;;4917681;29;20641;-79
2022/02/27 09:05:51;;;;;;;15.87;6.60;;;1.90;96.30;;;;;;4916447;29;20179;-77
2022/02/27 09:08:17;;;;;;;11.73;5.77;;;2.10;96.30;;;;;;4915814;29;20418;-75
2022/02/27 09:10:42;;;;;;;9.40;6.37;;;2.10;96.30;;;;;;4915881;29;20456;-78
2022/02/27 09:13:08;;;;;;;11.57;5.77;;;1.90;96.30;;;;;;4924827;29;20238;-74
2022/02/27 09:15:33;;;;;;;11.77;5.90;;;2.10;96.30;;;;;;4934352;29;20724;-74
2022/02/27 09:18:00;;;;;;;9.83;5.40;;;2.30;96.30;;;;;;4933805;29;20199;-75
2022/02/27 09:20:25;;;;;;;10.90;6.40;;;2.50;96.30;;;;;;4934481;29;20423;-74
2022/02/27 09:22:51;;;;;;;6.63;4.70;;;3.00;96.30;;;;;;4934723;29;20555;-75
2022/02/27 09:25:16;;;;;;;8.37;5.67;;;3.90;96.30;;;;;;4934927;29;20250;-74
2022/02/27 09:27:42;;;;;;;8.17;5.00;;;4.80;96.30;;;;;;4933999;29;20174;-74
2022/02/27 09:30:08;;;;;;;7.93;5.00;;;4.90;96.30;;;;;;4928176;29;20172;-74
2022/02/27 09:32:34;;;;;;;6.40;4.23;;;4.90;96.30;;;;;;4915531;29;20630;-74
2022/02/27 09:35:01;;;;;;;5.70;3.80;;;4.50;96.30;;;;;;4915770;29;20503;-73
2022/02/27 09:37:26;;;;;;;9.83;5.10;;;3.80;96.30;;;;;;4915099;29;20326;-79
2022/02/27 09:39:53;;;;;;;8.90;5.00;;;4.20;96.30;;;;;;4934619;29;20893;-74
2022/02/27 09:42:19;;;;;;;11.60;5.70;;;4.80;96.30;;;;;;4934090;29;20203;-74
2022/02/27 09:44:45;;;;;;;6.23;3.93;;;5.50;96.30;;;;;;4934544;29;20415;-74
2022/02/27 09:47:14;;;;;;;8.37;4.53;;;6.30;96.30;;;;;;4922212;29;20172;-74
2022/02/27 09:49:46;;;;;;;6.40;3.47;;;5.80;96.30;;;;;;4914880;29;20408;-76
2022/02/27 09:52:15;;;;;;;6.60;4.20;;;5.60;96.30;;;;;;4919375;29;20443;-74
2022/02/27 09:54:41;;;;;;;5.83;3.43;;;5.00;96.30;;;;;;4948858;29;20471;-74
2022/02/27 09:57:12;;;;;;;7.43;4.10;;;5.30;96.30;;;;;;4932647;29;20419;-74
2022/02/27 09:59:38;;;;;;;4.87;3.03;;;5.70;96.30;;;;;;4933748;29;20419;-74
2022/02/27 10:02:05;;;;;;;5.57;3.50;;;6.70;96.30;;;;;;4934116;29;20470;-74
2022/02/27 10:04:40;;;;;;;7.43;3.50;;;7.40;95.10;;;;;;4934416;29;20563;-75
2022/02/27 10:07:08;;;;;;;8.70;2.97;;;7.70;96.30;;;;;;4950576;29;20790;-74
2022/02/27 10:09:33;;;;;;;10.50;3.80;;;6.90;96.30;;;;;;4952450;29;20407;-74
2022/02/27 10:12:17;;;;;;;7.33;3.20;;;6.30;96.30;;;;;;4932571;29;21313;-74
2022/02/27 10:14:54;;;;;;;6.90;2.60;;;5.60;96.30;;;;;;4953545;29;20164;-77
2022/02/27 10:17:27;;;;;;;8.10;3.63;;;5.90;96.30;;;;;;4953372;29;20434;-77
2022/02/27 10:19:53;;;;;;;5.13;3.40;;;6.00;96.30;;;;;;4953428;29;20406;-78
2022/02/27 10:22:29;;;;;;;7.37;4.30;;;6.20;96.30;;;;;;4952960;28;20513;-77
2022/02/27 10:24:54;;;;;;;4.83;4.33;;;6.70;96.30;;;;;;4953590;29;20234;-77
2022/02/27 10:27:21;;;;;;;4.20;3.03;;;6.80;93.00;;;;;;4953442;29;20461;-78
2022/02/27 10:29:46;;;;;;;9.07;3.40;;;5.60;96.30;;;;;;4932435;29;20180;-78
2022/02/27 10:32:12;;;;;;;7.03;3.40;;;5.60;96.30;;;;;;4950638;28;20812;-78
2022/02/27 10:34:38;;;;;;;4.70;2.80;;;6.10;96.00;;;;;;4953511;29;20266;-78
2022/02/27 10:37:29;;;;;;;5.80;3.30;;;6.00;95.20;;;;;;4953364;29;20182;-78
2022/02/27 10:39:57;;;;;;;2.97;2.60;;;6.60;94.90;;;;;;4933920;29;20192;-77
2022/02/27 10:42:27;;;;;;;6.13;2.50;;;6.80;93.80;;;;;;4955324;28;20967;-77
2022/02/27 10:44:54;;;;;;;6.77;2.80;;;6.60;94.60;;;;;;4936442;29;20991;-76
2022/02/27 10:47:22;;;;;;;10.23;3.30;;;6.40;93.10;;;;;;4947425;29;21240;-75
2022/02/27 10:49:49;;;;;;;8.80;3.47;;;6.00;95.90;;;;;;4956398;29;20473;-77
2022/02/27 10:52:18;;;;;;;5.13;3.20;;;6.10;95.90;;;;;;4929914;29;20455;-76
2022/02/27 10:54:47;;;;;;;10.50;3.47;;;6.50;95.00;;;;;;4937566;29;20475;-76
2022/02/27 10:57:33;;;;;;;5.90;3.50;;;6.40;95.80;;;;;;4919873;29;20432;-78
2022/02/27 11:00:12;;;;;;;5.33;3.13;;;6.70;94.80;;;;;;4933429;29;20432;-79
2022/02/27 11:02:38;;;;;;;7.00;3.57;;;6.90;93.30;;;;;;4953541;29;20886;-78
2022/02/27 11:05:07;;;;;;;4.70;3.47;;;6.70;92.30;;;;;;4936018;29;20470;-78
2022/02/27 11:07:35;;;;;;;6.47;4.00;;;6.80;91.90;;;;;;4939853;29;20186;-75
2022/02/27 11:10:00;;;;;;;3.73;3.03;;;6.00;93.10;;;;;;4917109;29;20439;-75
2022/02/27 11:12:27;;;;;;;6.07;3.47;;;5.00;94.10;;;;;;4935388;29;20462;-75
2022/02/27 11:14:54;;;;;;;5.53;3.87;;;4.80;96.10;;;;;;4955948;29;20175;-75
2022/02/27 11:17:20;;;;;;;6.93;4.40;;;5.60;95.20;;;;;;4956424;29;20427;-75
2022/02/27 11:19:46;;;;;;;7.00;3.10;;;6.40;96.30;;;;;;4955729;29;20414;-75
2022/02/27 11:22:13;;;;;;;5.63;3.80;;;6.40;92.40;;;;;;4955973;29;20481;-77
2022/02/27 11:24:41;;;;;;;6.93;3.50;;;6.30;94.70;;;;;;4955587;29;20183;-77
2022/02/27 11:27:07;;;;;;;3.87;3.53;;;6.40;95.90;;;;;;4954144;29;20429;-78
2022/02/27 11:29:33;;;;;;;7.30;3.87;;;6.30;93.90;;;;;;4955956;29;20480;-80
2022/02/27 11:32:00;;;;;;;5.17;4.20;;;6.80;93.20;;;;;;4957390;29;20983;-79
2022/02/27 11:34:28;;;;;;;6.10;3.80;;;6.80;93.30;;;;;;4938765;29;20427;-79
2022/02/27 11:36:55;;;;;;;5.77;3.83;;;7.40;92.60;;;;;;4936966;29;20443;-80
2022/02/27 11:42:05;;;;;;;5.10;3.27;;;8.00;90.10;;;;;;4955528;28;20469;-78
2022/02/27 11:44:33;;;;;;;5.87;3.93;;;7.50;89.20;;;;;;4937999;29;20832;-78
2022/02/27 11:47:05;;;;;;;6.10;3.60;;;7.10;90.10;;;;;;4956305;29;20186;-76
2022/02/27 11:49:31;;;;;;;5.50;3.50;;;7.30;89.70;;;;;;4945499;28;20773;-78
2022/02/27 11:52:02;;;;;;;5.20;3.33;;;6.50;89.40;;;;;;4939253;29;20453;-76
2022/02/27 11:54:50;;;;;;;4.43;3.60;;;6.30;90.90;;;;;;4936448;29;20782;-78
2022/02/27 11:57:19;;;;;;;5.93;3.63;;;6.70;89.80;;;;;;4935866;29;20432;-77
2022/02/27 11:59:59;;;;;;;7.80;4.27;;;7.10;89.10;;;;;;4955059;29;20458;-76
2022/02/27 12:02:30;;;;;;;5.50;4.43;;;7.10;88.20;;;;;;4937009;29;20467;-75
2022/02/27 12:04:58;;;;;;;6.27;3.53;;;7.80;88.60;;;;;;4928946;29;20512;-78
2022/02/27 12:07:26;;;;;;;5.30;4.10;;;8.30;85.90;;;;;;4943011;29;20453;-78
2022/02/27 12:09:51;;;;;;;6.00;3.43;;;7.60;84.90;;;;;;4944023;29;20407;-77
2022/02/27 12:12:38;;;;;;;5.37;3.47;;;7.90;88.10;;;;;;4945713;29;20490;-76
2022/02/27 12:15:28;;;;;;;4.37;3.33;;;7.90;87.40;;;;;;4948287;29;20545;-76
2022/02/27 12:17:55;;;;;;;3.73;3.10;;;7.20;83.60;;;;;;4934556;29;20419;-75
2022/02/27 12:20:39;;;;;;;6.50;3.80;;;7.40;87.80;;;;;;4953256;29;20890;-75
2022/02/27 12:23:05;;;;;;;5.43;3.60;;;7.50;84.90;;;;;;4954847;29;20500;-75
2022/02/27 12:25:35;;;;;;;4.17;3.20;;;6.90;85.30;;;;;;4935044;29;20442;-76
2022/02/27 12:28:01;;;;;;;6.33;4.07;;;7.50;87.60;;;;;;4950789;29;20924;-75
2022/02/27 12:30:27;;;;;;;3.57;2.57;;;7.80;84.50;;;;;;4935727;29;20418;-75
2022/02/27 12:33:06;;;;;;;6.23;3.77;;;8.00;84.00;;;;;;4935769;29;20180;-75
2022/02/27 12:35:45;;;;;;;4.30;2.97;;;7.10;84.40;;;;;;4938189;29;20498;-75
2022/02/27 12:38:11;;;;;;;3.90;2.97;;;7.20;84.10;;;;;;4947053;29;20462;-75
2022/02/27 12:40:37;;;;;;;6.30;3.90;;;7.20;82.30;;;;;;4935628;29;20436;-74
2022/02/27 12:43:05;;;;;;;3.90;2.97;;;7.20;83.70;;;;;;4918557;29;20462;-74
2022/02/27 12:45:33;;;;;;;6.30;3.23;;;7.10;83.00;;;;;;4950446;29;20175;-75
2022/02/27 12:48:14;;;;;;;7.83;3.27;;;7.10;84.60;;;;;;4934205;29;20514;-74
2022/02/27 12:50:49;;;;;;;10.43;3.57;;;7.00;83.90;;;;;;4953352;29;20430;-75
2022/02/27 12:53:15;;;;;;;4.73;3.40;;;6.80;83.60;;;;;;4955577;29;20896;-75
2022/02/27 12:55:42;;;;;;;6.27;4.17;;;6.60;84.30;;;;;;4954901;29;20410;-75
2022/02/27 12:58:09;;;;;;;4.00;3.57;;;6.50;84.60;;;;;;4933743;29;20427;-75
2022/02/27 13:00:37;;;;;;;4.33;3.43;;;6.80;85.20;;;;;;4954413;29;20460;-76
2022/02/27 13:03:10;;;;;;;3.10;2.80;;;6.90;86.70;;;;;;4953993;28;20489;-74
2022/02/27 13:05:37;;;;;;;3.10;2.30;;;6.90;85.70;;;;;;4954056;29;20822;-75
2022/02/27 13:08:08;;;;;;;3.57;3.00;;;6.70;84.50;;;;;;4953813;29;20430;-75
2022/02/27 13:10:35;;;;;;;3.40;3.10;;;7.10;84.30;;;;;;4943530;29;20459;-76
2022/02/27 13:13:09;;;;;;;6.80;3.33;;;7.00;83.90;;;;;;4935170;29;20415;-76
2022/02/27 13:15:35;;;;;;;4.50;3.30;;;7.00;86.90;;;;;;4935143;29;20486;-74
2022/02/27 13:18:03;;;;;;;4.80;3.87;;;6.60;87.40;;;;;;4934807;29;20848;-75
2022/02/27 13:20:29;;;;;;;4.13;3.07;;;6.30;87.30;;;;;;4950115;29;20215;-75
2022/02/27 13:22:55;;;;;;;6.43;3.60;;;6.00;87.90;;;;;;4953989;29;20458;-75
2022/02/27 13:25:21;;;;;;;5.43;3.63;;;5.80;89.00;;;;;;4953444;29;20414;-74
2022/02/27 13:27:50;;;;;;;4.97;3.90;;;5.90;88.30;;;;;;4951732;29;20229;-74
2022/02/27 13:30:18;;;;;;;6.57;4.10;;;5.80;89.70;;;;;;4952954;29;20418;-76
2022/02/27 13:32:46;;;;;;;4.87;3.90;;;5.80;88.90;;;;;;4954003;29;20446;-75
2022/02/27 13:35:37;;;;;;;4.73;3.63;;;5.70;88.60;;;;;;4934013;29;20426;-75
2022/02/27 13:38:14;;;;;;;4.20;3.37;;;5.60;89.40;;;;;;4948997;29;20419;-74
2022/02/27 13:40:41;;;;;;;3.80;3.23;;;5.40;89.00;;;;;;4952431;29;20446;-75
2022/02/27 13:43:18;;;;;;;5.87;4.17;;;5.30;91.00;;;;;;4953787;29;20520;-74
2022/02/27 13:45:44;;;;;;;4.37;3.80;;;5.40;89.80;;;;;;4953747;29;20387;-75
2022/02/27 13:48:15;;;;;;;4.90;3.40;;;5.90;89.60;;;;;;4953062;29;20462;-77
2022/02/27 13:50:45;;;;;;;7.23;5.43;;;6.40;88.50;;;;;;4946059;29;20222;-77
2022/02/27 13:53:19;;;;;;;7.50;4.00;;;6.60;84.70;;;;;;4938537;29;20415;-77
2022/02/27 13:55:47;;;;;;;5.90;3.97;;;6.70;83.80;;;;;;4953532;29;20971;-76
2022/02/27 13:58:17;;;;;;;8.07;5.30;;;6.80;83.50;;;;;;4953360;29;20746;-77
2022/02/27 14:00:57;;;;;;;5.17;4.00;;;6.90;83.80;;;;;;4953379;29;20481;-78
2022/02/27 14:03:36;;;;;;;5.73;3.63;;;6.90;85.00;;;;;;4953497;29;20454;-78
2022/02/27 14:06:07;;;;;;;6.47;4.20;;;6.80;84.10;;;;;;4953548;29;20399;-77
2022/02/27 14:08:35;;;;;;;7.00;3.40;;;6.80;86.00;;;;;;4952937;29;21215;-78
2022/02/27 14:11:15;;;;;;;5.67;3.90;;;6.80;85.10;;;;;;4953477;29;20454;-78
2022/02/27 14:13:42;;;;;;;4.07;3.67;;;6.70;83.30;;;;;;4952902;28;20424;-78
2022/02/27 14:16:07;;;;;;;5.20;3.70;;;6.70;84.10;;;;;;4957368;29;20855;-77
2022/02/27 14:18:36;;;;;;;7.77;4.07;;;6.50;84.80;;;;;;4956725;29;20505;-78
2022/02/27 14:21:19;;;;;;;5.13;4.00;;;6.50;85.80;;;;;;4956164;29;20207;-78
2022/02/27 14:24:16;;;;;;;6.03;3.60;;;6.60;85.40;;;;;;4957315;29;20419;-75
2022/02/27 14:26:43;;;;;;;6.30;3.40;;;6.80;84.20;;;;;;4941268;29;20426;-77
2022/02/27 14:29:15;;;;;;;4.97;4.07;;;6.70;84.10;;;;;;4956564;29;20419;-76
2022/02/27 14:31:44;;;;;;;5.90;3.00;;;6.70;84.40;;;;;;4957047;29;20473;-79
2022/02/27 14:34:12;;;;;;;3.40;3.10;;;6.60;82.90;;;;;;4940354;29;20921;-78
2022/02/27 14:36:41;;;;;;;4.67;3.33;;;6.10;83.80;;;;;;4953010;29;20422;-76
2022/02/27 14:39:08;;;;;;;3.87;3.47;;;5.90;84.90;;;;;;4951784;29;20429;-78
2022/02/27 14:54:31;;;;;;;6.07;3.50;;;5.50;87.70;;;;;;5940607;23;21267;-76
2022/02/27 14:56:56;;;;;;;5.10;4.00;;;5.60;88.30;;;;;;4975368;28;20412;-75
2022/02/27 14:59:22;;;;;;;14.53;4.00;;;5.50;88.80;;;;;;4974426;28;20213;-74
2022/02/27 15:01:47;;;;;;;4.30;3.67;;;5.70;87.70;;;;;;4963132;28;20217;-75
2022/02/27 15:04:15;;;;;;;5.50;2.97;;;5.70;88.50;;;;;;4955241;29;20182;-77
2022/02/27 15:06:41;;;;;;;3.47;2.90;;;5.60;87.00;;;;;;4951539;29;20167;-77
2022/02/27 15:09:07;;;;;;;5.77;3.43;;;5.50;86.80;;;;;;4919716;29;20470;-77
2022/02/27 15:11:32;;;;;;;3.70;2.90;;;5.30;87.60;;;;;;4937033;29;20798;-77
2022/02/27 15:13:58;;;;;;;4.73;3.33;;;5.20;88.00;;;;;;4943534;29;20186;-77
2022/02/27 15:16:24;;;;;;;4.83;3.10;;;5.30;87.40;;;;;;4942289;29;20227;-77
2022/02/27 15:18:52;;;;;;;4.97;3.27;;;5.20;87.70;;;;;;4943101;29;20290;-76
2022/02/27 15:21:18;;;;;;;3.50;2.70;;;5.20;88.40;;;;;;4933716;29;20443;-77
2022/02/27 15:23:46;;;;;;;3.80;2.73;;;5.20;88.00;;;;;;4950699;29;20916;-77
2022/02/27 15:26:13;;;;;;;4.20;2.80;;;5.20;88.50;;;;;;4953757;28;20419;-77
2022/02/27 15:28:39;;;;;;;6.03;3.20;;;5.10;89.20;;;;;;4939898;29;20415;-77
2022/02/27 15:31:05;;;;;;;4.37;3.90;;;5.10;88.50;;;;;;4956135;28;20514;-77
2022/02/27 15:33:31;;;;;;;5.13;3.50;;;4.90;89.80;;;;;;4947668;29;20526;-77
2022/02/27 15:35:56;;;;;;;4.40;3.13;;;4.90;89.20;;;;;;4949336;29;20427;-77
2022/02/27 15:38:22;;;;;;;4.23;3.23;;;4.90;89.80;;;;;;4937531;29;20709;-77
2022/02/27 15:40:48;;;;;;;4.10;3.37;;;5.00;89.80;;;;;;4944903;28;20207;-77
2022/02/27 15:43:13;;;;;;;4.17;3.20;;;4.90;89.30;;;;;;4953469;29;20465;-76
2022/02/27 15:45:39;;;;;;;4.63;3.87;;;4.80;89.80;;;;;;4949194;29;20250;-77
2022/02/27 15:48:05;;;;;;;3.70;2.90;;;4.70;90.80;;;;;;4947119;29;20183;-78
2022/02/27 15:50:30;;;;;;;5.03;3.37;;;4.60;91.50;;;;;;4953743;28;20180;-77
2022/02/27 15:52:56;;;;;;;8.00;3.20;;;4.50;91.40;;;;;;4954551;29;20482;-78
2022/02/27 15:55:21;;;;;;;6.70;3.60;;;4.50;91.80;;;;;;4955418;29;20243;-78
2022/02/27 15:57:46;;;;;;;10.67;6.27;;;4.40;91.50;;;;;;4953790;29;20558;-78
2022/02/27 16:00:12;;;;;;;7.60;6.27;;;4.30;92.50;;;;;;4954227;29;20269;-78
2022/02/27 16:02:39;;;;;;;4.90;3.80;;;4.10;93.70;;;;;;4954073;29;20234;-77
2022/02/27 16:05:05;;;;;;;4.23;3.17;;;4.00;94.10;;;;;;4954152;29;20422;-77
2022/02/27 16:07:31;;;;;;;5.10;3.57;;;3.90;94.30;;;;;;4954758;29;20566;-77
2022/02/27 16:09:56;;;;;;;4.60;2.90;;;3.90;94.00;;;;;;4955442;29;20494;-77
2022/02/27 16:12:22;;;;;;;3.50;3.20;;;3.80;94.30;;;;;;4955223;28;20202;-77
2022/02/27 16:14:50;;;;;;;4.40;3.70;;;3.60;95.50;;;;;;4953855;29;20167;-77
2022/02/27 16:17:15;;;;;;;4.40;3.33;;;3.60;95.40;;;;;;4954292;29;20656;-77
2022/02/27 16:19:41;;;;;;;6.33;3.40;;;3.60;95.50;;;;;;4950086;29;20431;-77
2022/02/27 16:22:07;;;;;;;5.20;3.40;;;3.60;95.70;;;;;;4953750;28;20218;-78
2022/02/27 16:24:32;;;;;;;5.33;4.17;;;3.60;96.30;;;;;;4953776;29;20625;-78
2022/02/27 16:27:00;;;;;;;4.00;3.60;;;3.50;96.30;;;;;;4954995;29;20175;-78
2022/02/27 16:29:27;;;;;;;5.83;4.10;;;3.30;96.30;;;;;;4953092;29;20214;-78
2022/02/27 16:31:53;;;;;;;4.67;3.80;;;3.20;96.30;;;;;;4946565;28;20455;-79
2022/02/27 16:34:19;;;;;;;4.77;3.77;;;3.10;96.30;;;;;;4948026;29;20929;-78
2022/02/27 16:36:45;;;;;;;4.80;4.30;;;2.90;96.30;;;;;;4928451;29;20423;-79
2022/02/27 16:39:10;;;;;;;7.33;5.40;;;2.70;96.30;;;;;;4936383;29;20172;-77
2022/02/27 16:41:36;;;;;;;6.03;4.70;;;2.60;96.30;;;;;;4952365;28;20568;-79
2022/02/27 16:44:02;;;;;;;6.60;5.03;;;2.60;96.30;;;;;;4955424;29;20211;-79
2022/02/27 16:46:28;;;;;;;7.50;4.60;;;2.40;96.30;;;;;;4954066;29;20210;-79
2022/02/27 16:48:54;;;;;;;6.83;5.27;;;2.20;96.30;;;;;;4950707;29;20565;-79
2022/02/27 16:51:19;;;;;;;6.30;5.20;;;2.00;96.30;;;;;;4953926;28;20529;-79
2022/02/27 16:53:47;;;;;;;10.63;7.27;;;1.80;96.30;;;;;;4938526;29;20171;-77
2022/02/27 16:56:14;;;;;;;10.00;7.10;;;1.60;96.30;;;;;;4933698;29;20226;-77
2022/02/27 16:58:41;;;;;;;8.20;6.73;;;1.40;96.30;;;;;;4934836;29;20513;-77
2022/02/27 17:01:07;;;;;;;9.90;8.23;;;1.10;96.30;;;;;;4935312;29;20494;-75
2022/02/27 17:03:33;;;;;;;10.87;7.80;;;0.90;96.30;;;;;;4935107;29;20494;-76
2022/02/27 17:05:58;;;;;;;9.30;7.63;;;0.70;96.30;;;;;;4942606;29;20187;-76
2022/02/27 17:08:24;;;;;;;13.13;8.73;;;0.50;96.30;;;;;;4935090;29;20266;-77
2022/02/27 17:10:49;;;;;;;11.13;6.93;;;0.40;96.30;;;;;;4940775;29;20202;-77
2022/02/27 17:13:15;;;;;;;10.67;7.17;;;0.30;96.30;;;;;;4953937;29;20431;-78
2022/02/27 17:15:40;;;;;;;8.43;5.47;;;0.20;96.30;;;;;;4954202;29;20186;-77
2022/02/27 17:18:06;;;;;;;8.67;5.60;;;0.20;96.30;;;;;;4945700;29;20190;-77
2022/02/27 17:20:32;;;;;;;10.13;6.30;;;0.00;96.30;;;;;;4949241;29;20187;-76
2022/02/27 17:22:57;;;;;;;8.23;5.90;;;-0.10;96.30;;;;;;4946022;29;20206;-78
2022/02/27 17:25:23;;;;;;;6.27;5.07;;;-0.20;96.30;;;;;;4944436;29;20178;-78
2022/02/27 17:27:48;;;;;;;5.90;5.00;;;-0.30;96.30;;;;;;4945507;29;20199;-77
2022/02/27 17:30:15;;;;;;;6.67;5.30;;;-0.40;96.30;;;;;;4941724;29;20258;-77
2022/02/27 17:32:40;;;;;;;6.33;5.37;;;-0.40;96.30;;;;;;4935996;29;20194;-77
2022/02/27 17:35:07;;;;;;;6.70;5.00;;;-0.30;96.30;;;;;;4945126;29;20424;-77
2022/02/27 17:37:34;;;;;;;6.97;4.83;;;-0.40;96.30;;;;;;4946405;29;20595;-77
2022/02/27 17:40:02;;;;;;;8.30;5.60;;;-0.40;96.30;;;;;;4947267;29;20435;-78
2022/02/27 17:42:28;;;;;;;7.23;5.70;;;-0.50;96.30;;;;;;4952417;28;20478;-78
2022/02/27 17:44:53;;;;;;;8.07;5.87;;;-0.50;96.30;;;;;;4946889;29;21005;-78
2022/02/27 17:47:19;;;;;;;10.80;7.20;;;-0.30;96.30;;;;;;4949359;29;20220;-75
2022/02/27 17:49:45;;;;;;;8.83;6.60;;;-0.30;96.30;;;;;;4935581;29;20174;-76
2022/02/27 17:52:10;;;;;;;13.20;7.27;;;-0.40;96.30;;;;;;4934557;29;20661;-75
2022/02/27 17:54:36;;;;;;;9.87;7.27;;;-0.50;96.30;;;;;;4943504;29;20279;-77
2022/02/27 17:57:02;;;;;;;11.97;8.57;;;-0.50;96.30;;;;;;4946726;29;20573;-75
2022/02/27 17:59:29;;;;;;;14.07;10.30;;;-0.50;96.30;;;;;;4953472;29;20186;-75
2022/02/27 18:01:54;;;;;;;14.57;9.83;;;-0.50;96.30;;;;;;4952629;28;20579;-77
2022/02/27 18:04:20;;;;;;;20.57;9.90;;;-0.60;96.30;;;;;;4953310;29;20409;-77
2022/02/27 18:06:45;;;;;;;16.20;9.70;;;-0.50;96.30;;;;;;4952475;29;20826;-77
2022/02/27 18:09:11;;;;;;;11.97;7.60;;;-0.50;96.30;;;;;;4953113;29;20171;-77
2022/02/27 18:11:36;;;;;;;10.97;6.73;;;-0.40;96.30;;;;;;4953587;28;20303;-77
2022/02/27 18:14:02;;;;;;;9.37;7.17;;;-0.30;96.30;;;;;;4953505;29;20538;-76
2022/02/27 18:16:28;;;;;;;8.97;7.30;;;-0.30;96.30;;;;;;4953567;29;20200;-77
2022/02/27 18:18:54;;;;;;;11.50;7.57;;;-0.30;96.30;;;;;;4947666;29;20563;-78
2022/02/27 18:21:20;;;;;;;14.73;8.10;;;-0.40;96.30;;;;;;4935853;29;20213;-77
2022/02/27 18:23:45;;;;;;;11.33;7.47;;;-0.50;96.30;;;;;;4939599;29;20471;-78
2022/02/27 18:26:11;;;;;;;12.43;8.43;;;-0.60;96.30;;;;;;4942383;29;20186;-77
2022/02/27 18:28:36;;;;;;;10.10;7.10;;;-0.70;96.30;;;;;;4952396;29;20632;-77
2022/02/27 18:31:02;;;;;;;13.60;7.20;;;-0.70;96.30;;;;;;4952725;28;20217;-77
2022/02/27 18:33:28;;;;;;;12.20;7.33;;;-0.80;96.30;;;;;;4941103;29;20183;-77
2022/02/27 18:35:54;;;;;;;10.43;7.50;;;-0.70;96.30;;;;;;4941623;29;20433;-76
2022/02/27 18:38:20;;;;;;;10.00;6.43;;;-0.80;96.30;;;;;;4944860;29;20203;-77
2022/02/27 18:40:45;;;;;;;8.67;5.90;;;-0.80;96.30;;;;;;4940801;28;20521;-77
2022/02/27 18:43:11;;;;;;;11.80;8.07;;;-0.90;96.30;;;;;;4950016;29;20233;-75
2022/02/27 18:45:37;;;;;;;11.93;7.93;;;-1.00;96.30;;;;;;4943392;29;20659;-77
2022/02/27 18:48:03;;;;;;;12.30;7.87;;;-1.10;96.30;;;;;;4935681;29;20200;-76
2022/02/27 18:50:29;;;;;;;16.03;10.90;;;-1.30;96.30;;;;;;4942238;28;20226;-76
2022/02/27 18:52:54;;;;;;;15.23;9.67;;;-1.40;96.30;;;;;;4944619;28;20482;-78
2022/02/27 18:55:20;;;;;;;10.93;8.80;;;-1.50;96.30;;;;;;4937516;29;20279;-77
2022/02/27 18:57:46;;;;;;;75.20;45.60;;;-1.50;96.30;;;;;;4957098;28;20211;-76
2022/02/27 19:00:18;;;;;;;17.77;13.60;;;-1.50;96.30;;;;;;4964761;28;20241;-76
2022/02/27 19:02:44;;;;;;;20.50;11.70;;;-1.60;96.30;;;;;;4956480;29;20453;-77
2022/02/27 19:05:10;;;;;;;17.40;11.93;;;-1.50;96.30;;;;;;4956495;29;20893;-77
2022/02/27 19:07:47;;;;;;;21.13;13.37;;;-1.40;96.30;;;;;;4956275;29;20933;-75
2022/02/27 19:10:15;;;;;;;19.33;10.40;;;-1.20;96.30;;;;;;4957497;28;20517;-76
2022/02/27 19:12:42;;;;;;;16.43;12.57;;;-1.20;96.30;;;;;;4962836;28;20418;-77
2022/02/27 19:15:08;;;;;;;19.63;14.00;;;-1.10;96.30;;;;;;4939118;29;20417;-77
2022/02/27 19:17:34;;;;;;;18.57;12.67;;;-1.10;96.30;;;;;;4956031;29;20422;-76
2022/02/27 19:20:00;;;;;;;14.57;9.63;;;-1.20;96.30;;;;;;4939194;29;20415;-76
2022/02/27 19:22:26;;;;;;;12.83;8.43;;;-1.20;96.30;;;;;;4938958;29;20268;-76
2022/02/27 19:24:52;;;;;;;8.27;6.90;;;-1.00;96.30;;;;;;4939247;29;20681;-77
2022/02/27 19:27:18;;;;;;;14.43;9.33;;;-0.70;96.30;;;;;;4957987;28;20182;-74
2022/02/27 19:29:44;;;;;;;11.90;8.33;;;-0.50;96.30;;;;;;4975299;28;20807;-74
2022/02/27 19:32:10;;;;;;;14.07;9.00;;;-0.50;96.30;;;;;;4975307;28;20441;-76
2022/02/27 19:34:35;;;;;;;13.37;9.13;;;-0.50;96.30;;;;;;4957772;28;20225;-74
2022/02/27 19:37:01;;;;;;;13.60;9.00;;;-0.50;96.30;;;;;;4975283;28;20637;-74
2022/02/27 19:39:26;;;;;;;17.30;9.20;;;-0.50;96.30;;;;;;4974952;28;20186;-75
2022/02/27 19:41:52;;;;;;;11.97;9.37;;;-0.50;96.30;;;;;;4974951;28;20216;-75
2022/02/27 19:44:18;;;;;;;16.83;8.40;;;-0.60;96.30;;;;;;4957471;28;20265;-75
2022/02/27 19:46:44;;;;;;;12.47;8.33;;;-0.80;96.30;;;;;;4975144;28;20178;-74
2022/02/27 19:49:09;;;;;;;10.50;7.73;;;-1.00;96.30;;;;;;4957468;28;20420;-76
2022/02/27 19:51:35;;;;;;;8.77;6.70;;;-1.20;96.30;;;;;;4975053;28;20194;-74
2022/02/27 19:54:00;;;;;;;8.83;5.87;;;-1.20;96.30;;;;;;4975057;28;20205;-74
2022/02/27 19:56:26;;;;;;;9.30;5.50;;;-1.30;96.30;;;;;;4957544;28;20218;-74
2022/02/27 19:58:52;;;;;;;12.80;5.70;;;-1.50;96.30;;;;;;4957431;28;20178;-75
2022/02/27 20:01:18;;;;;;;8.37;5.07;;;-1.60;96.30;;;;;;4974778;28;20197;-74
2022/02/27 20:03:43;;;;;;;6.80;5.63;;;-1.90;96.30;;;;;;4974850;28;20224;-74
2022/02/27 20:06:09;;;;;;;11.33;7.00;;;-2.10;96.30;;;;;;4974811;28;20537;-74
2022/02/27 20:08:37;;;;;;;10.03;6.33;;;-2.30;96.30;;;;;;4957197;28;20179;-75
2022/02/27 20:11:03;;;;;;;13.73;8.27;;;-2.40;96.30;;;;;;4973683;28;20253;-75
2022/02/27 20:13:28;;;;;;;12.03;8.23;;;-2.50;96.30;;;;;;4954893;28;20919;-75
2022/02/27 20:15:56;;;;;;;21.03;15.27;;;-2.40;96.30;;;;;;4972413;28;20424;-74
2022/02/27 20:18:23;;;;;;;13.47;8.80;;;-2.20;96.30;;;;;;4974336;28;20174;-75
2022/02/27 20:20:55;;;;;;;14.23;8.53;;;-2.00;96.30;;;;;;4957215;28;20497;-75
2022/02/27 20:23:21;;;;;;;11.33;8.27;;;-1.70;96.30;;;;;;4974428;28;20544;-75
2022/02/27 20:25:47;;;;;;;17.10;9.60;;;-1.70;96.30;;;;;;4972239;28;20509;-74
2022/02/27 20:28:15;;;;;;;12.63;7.37;;;-1.50;96.30;;;;;;4967063;28;20172;-75
2022/02/27 20:30:41;;;;;;;13.50;8.70;;;-1.40;96.30;;;;;;4946460;28;20851;-74
2022/02/27 20:33:07;;;;;;;15.43;8.03;;;-1.30;96.30;;;;;;4965285;28;20542;-75
2022/02/27 20:35:33;;;;;;;11.03;7.67;;;-1.20;96.30;;;;;;4976689;28;20417;-76
2022/02/27 20:37:59;;;;;;;8.60;7.37;;;-1.20;96.30;;;;;;4975896;28;20839;-76
2022/02/27 21:16:32;;;;;;;13.37;8.90;;;-1.80;96.30;;;;;;4958434;29;20445;-76